Time;durP1;ratioP1;P1;durP2;ratioP2;P2;SDS_P1;SDS_P2;PMS_P1;PMS_P2;Temp;Humidity;BMP_temperature;BMP_pressure;BME280_temperature;BME280_humidity;BME280_pressure;Samples;Min_cycle;Max_cycle;Signal;HPM_P1;HPM_P2
2022/01/15 00:00:15;;;;;;;64.05;28.33;;;;;;;;;;4797680;29;20047;-79
2022/01/15 00:03:00;;;;;;;69.25;30.98;;;;;;;;;;4778526;30;20059;-79
2022/01/15 00:05:46;;;;;;;49.47;26.02;;;;;;;;;;4790539;30;20492;-77
2022/01/15 00:08:31;;;;;;;74.32;31.80;;;;;;;;;;4791523;30;20055;-78
2022/01/15 00:11:18;;;;;;;77.28;34.15;;;;;;;;;;4797649;29;20051;-79
2022/01/15 00:14:24;;;;;;;71.25;32.92;;;;;;;;;;4797573;29;20055;-79
2022/01/15 00:17:20;;;;;;;108.63;39.35;;;;;;;;;;4798087;29;20058;-77
2022/01/15 00:20:06;;;;;;;50.58;23.27;;;;;;;;;;4797620;29;20051;-78
2022/01/15 00:22:54;;;;;;;81.47;34.72;;;;;;;;;;4797172;29;20055;-81
2022/01/15 00:25:40;;;;;;;44.30;19.25;;;;;;;;;;4791479;30;20059;-79
2022/01/15 00:28:25;;;;;;;37.92;17.63;;;;;;;;;;4790327;30;20059;-78
2022/01/15 00:31:11;;;;;;;86.05;33.05;;;;;;;;;;4791300;30;20055;-78
2022/01/15 00:33:56;;;;;;;181.35;67.63;;;;;;;;;;4792019;30;20055;-77
2022/01/15 00:36:42;;;;;;;53.13;24.42;;;;;;;;;;4790949;30;20051;-80
2022/01/15 00:39:28;;;;;;;65.65;22.63;;;;;;;;;;4792407;29;20059;-79
2022/01/15 00:42:14;;;;;;;51.15;21.77;;;;;;;;;;4790805;30;20047;-81
2022/01/15 00:48:52;;;;;;;57.60;25.58;;;;;;;;;;4796824;29;20424;-81
2022/01/15 00:51:38;;;;;;;190.93;80.20;;;;;;;;;;4796912;29;20118;-80
2022/01/15 00:54:23;;;;;;;52.45;24.20;;;;;;;;;;4791220;30;20047;-78
2022/01/15 00:57:08;;;;;;;76.50;33.75;;;;;;;;;;4796263;29;20047;-81
2022/01/15 00:59:53;;;;;;;58.10;28.92;;;;;;;;;;4797061;29;20051;-79
2022/01/15 01:02:39;;;;;;;62.22;25.73;;;;;;;;;;4796900;29;20059;-80
2022/01/15 01:05:25;;;;;;;90.50;33.10;;;;;;;;;;4796740;29;20051;-80
2022/01/15 01:08:10;;;;;;;81.00;30.17;;;;;;;;;;4790411;29;20412;-80
2022/01/15 01:10:59;;;;;;;68.30;29.25;;;;;;;;;;4776355;30;20048;-80
2022/01/15 01:22:57;;;;;;;64.47;30.15;;;;;;;;;;4772530;30;20048;-81
2022/01/15 01:25:46;;;;;;;60.03;27.60;;;;;;;;;;4772257;30;20497;-79
2022/01/15 01:28:39;;;;;;;70.00;30.05;;;;;;;;;;4778665;30;20098;-79
2022/01/15 01:31:33;;;;;;;69.78;30.33;;;;;;;;;;4778178;30;20496;-79
2022/01/15 01:34:20;;;;;;;63.20;28.08;;;;;;;;;;4778746;30;20056;-81
2022/01/15 01:37:20;;;;;;;72.78;32.38;;;;;;;;;;4772160;30;20413;-79
2022/01/15 01:40:20;;;;;;;90.15;36.17;;;;;;;;;;4778260;30;20056;-81
2022/01/15 01:43:39;;;;;;;96.10;37.17;;;;;;;;;;4778619;30;20059;-79
2022/01/15 01:46:39;;;;;;;95.47;39.45;;;;;;;;;;4771844;30;20064;-80
2022/01/15 01:49:19;;;;;;;90.43;37.83;;;;;;;;;;4778028;30;20056;-80
2022/01/15 01:52:04;;;;;;;82.82;36.38;;;;;;;;;;4777740;30;20059;-81
2022/01/15 01:54:49;;;;;;;86.90;38.25;;;;;;;;;;4778216;30;20056;-80
2022/01/15 01:57:35;;;;;;;75.70;35.20;;;;;;;;;;4778038;30;20060;-78
2022/01/15 02:00:22;;;;;;;76.45;34.17;;;;;;;;;;4777697;30;20047;-79
2022/01/15 02:03:07;;;;;;;79.88;34.70;;;;;;;;;;4778294;30;20473;-78
2022/01/15 02:05:53;;;;;;;57.22;26.85;;;;;;;;;;4777440;30;20059;-80
2022/01/15 02:08:38;;;;;;;45.63;21.88;;;;;;;;;;4777913;30;20052;-80
2022/01/15 02:11:25;;;;;;;43.70;21.48;;;;;;;;;;4778123;30;20055;-78
2022/01/15 02:14:30;;;;;;;34.28;17.60;;;;;;;;;;4777438;30;20055;-79
2022/01/15 02:17:18;;;;;;;27.87;15.07;;;;;;;;;;4778324;30;20051;-79
2022/01/15 02:20:22;;;;;;;24.08;11.05;;;;;;;;;;4776520;30;20496;-79
2022/01/15 02:26:24;;;;;;;;;;;;;;;;;;4772918;30;20043;-82
2022/01/15 02:29:09;;;;;;;;;;;;;;;;;;4778737;30;19918;-79
2022/01/15 02:31:55;;;;;;;34.60;15.52;;;;;;;;;;4780312;30;19921;-80
2022/01/15 02:34:40;;;;;;;29.17;14.48;;;;;;;;;;4772386;30;20051;-78
2022/01/15 02:37:28;;;;;;;27.90;13.70;;;;;;;;;;4772442;30;20056;-79
2022/01/15 02:40:13;;;;;;;25.50;12.68;;;;;;;;;;4776359;30;20047;-80
2022/01/15 02:43:07;;;;;;;26.38;14.18;;;;;;;;;;4777549;30;20055;-80
2022/01/15 02:45:57;;;;;;;27.60;13.10;;;;;;;;;;4770758;30;20496;-80
2022/01/15 02:48:42;;;;;;;18.58;11.25;;;;;;;;;;4770984;30;20484;-79
2022/01/15 02:51:37;;;;;;;16.13;9.90;;;;;;;;;;4777386;30;20055;-79
2022/01/15 02:54:23;;;;;;;17.75;9.85;;;;;;;;;;4777192;30;20059;-78
2022/01/15 02:57:08;;;;;;;30.30;15.02;;;;;;;;;;4776941;30;20492;-79
2022/01/15 02:59:53;;;;;;;35.42;19.30;;;;;;;;;;4776932;30;20047;-79
2022/01/15 03:02:38;;;;;;;20.55;11.80;;;;;;;;;;4776671;30;20051;-81
2022/01/15 03:05:24;;;;;;;17.88;10.20;;;;;;;;;;4776884;30;20433;-79
2022/01/15 03:08:09;;;;;;;16.25;9.50;;;;;;;;;;4771015;30;20091;-79
2022/01/15 03:10:55;;;;;;;17.13;9.82;;;;;;;;;;4771085;30;20052;-80
2022/01/15 03:13:41;;;;;;;13.90;7.85;;;;;;;;;;4776921;30;20051;-80
2022/01/15 03:16:27;;;;;;;13.98;7.57;;;;;;;;;;4770654;30;20051;-80
2022/01/15 03:19:13;;;;;;;10.13;5.70;;;;;;;;;;4776598;30;20051;-80
2022/01/15 03:21:58;;;;;;;14.73;7.47;;;;;;;;;;4775785;30;20043;-79
2022/01/15 03:24:44;;;;;;;10.00;6.22;;;;;;;;;;4776404;30;20044;-81
2022/01/15 03:27:29;;;;;;;29.67;15.35;;;;;;;;;;4776851;30;20052;-81
2022/01/15 03:30:15;;;;;;;19.33;10.57;;;;;;;;;;4776568;30;20043;-80
2022/01/15 03:33:00;;;;;;;10.65;6.47;;;;;;;;;;4774602;30;20053;-81
2022/01/15 03:35:46;;;;;;;10.85;6.45;;;;;;;;;;4774749;30;20085;-81
2022/01/15 03:38:32;;;;;;;10.95;6.43;;;;;;;;;;4785293;30;20059;-80
2022/01/15 03:41:18;;;;;;;11.27;7.18;;;;;;;;;;4798424;29;20055;-81
2022/01/15 03:44:04;;;;;;;14.82;7.00;;;;;;;;;;4798265;29;20055;-80
2022/01/15 03:46:49;;;;;;;12.20;7.28;;;;;;;;;;4784917;29;20043;-81
2022/01/15 03:49:36;;;;;;;13.77;6.65;;;;;;;;;;4784754;29;20047;-80
2022/01/15 03:52:27;;;;;;;10.85;7.18;;;;;;;;;;4791819;30;20055;-81
2022/01/15 03:55:14;;;;;;;11.27;5.72;;;;;;;;;;4784708;29;20479;-81
2022/01/15 03:58:00;;;;;;;13.45;7.10;;;;;;;;;;4791901;30;20504;-82
2022/01/15 04:00:50;;;;;;;10.35;6.40;;;;;;;;;;4784253;29;20056;-81
2022/01/15 04:03:38;;;;;;;11.85;5.75;;;;;;;;;;4784720;29;20058;-81
2022/01/15 04:06:49;;;;;;;10.10;6.13;;;;;;;;;;4784211;29;20047;-81
2022/01/15 04:09:35;;;;;;;9.15;5.80;;;;;;;;;;4797880;29;20047;-82
2022/01/15 04:12:21;;;;;;;15.93;8.13;;;;;;;;;;4783946;29;20047;-82
2022/01/15 04:15:08;;;;;;;12.70;8.40;;;;;;;;;;4784038;29;20047;-78
2022/01/15 04:17:54;;;;;;;14.95;8.70;;;;;;;;;;4797493;29;20476;-81
2022/01/15 04:20:39;;;;;;;20.20;10.73;;;;;;;;;;4790338;30;20411;-81
2022/01/15 04:23:24;;;;;;;16.08;8.00;;;;;;;;;;4791546;30;20059;-81
2022/01/15 04:26:10;;;;;;;14.07;8.48;;;;;;;;;;4791366;30;20043;-82
2022/01/15 04:29:04;;;;;;;14.38;7.60;;;;;;;;;;4790428;30;20051;-82
2022/01/15 04:31:51;;;;;;;14.45;7.53;;;;;;;;;;4791648;30;20047;-82
2022/01/15 04:34:36;;;;;;;13.93;8.60;;;;;;;;;;4790722;30;20051;-82
2022/01/15 04:37:24;;;;;;;16.17;8.13;;;;;;;;;;4791503;30;20051;-81
2022/01/15 04:40:11;;;;;;;16.70;8.93;;;;;;;;;;4790684;30;20051;-81
2022/01/15 04:42:57;;;;;;;13.63;8.23;;;;;;;;;;4795203;29;20055;-84
2022/01/15 04:45:42;;;;;;;14.07;8.60;;;;;;;;;;4791373;30;20055;-81
2022/01/15 04:48:28;;;;;;;14.05;8.27;;;;;;;;;;4797641;29;20055;-80
2022/01/15 04:51:13;;;;;;;14.15;7.35;;;;;;;;;;4795961;29;20412;-83
2022/01/15 04:53:58;;;;;;;17.38;10.88;;;;;;;;;;4796616;29;20059;-84
2022/01/15 04:56:44;;;;;;;13.80;7.97;;;;;;;;;;4811504;29;20059;-80
2022/01/15 04:59:30;;;;;;;16.25;9.50;;;;;;;;;;4793217;29;20415;-80
2022/01/15 05:02:15;;;;;;;17.77;8.40;;;;;;;;;;4800719;29;20051;-79
2022/01/15 05:05:00;;;;;;;14.68;9.40;;;;;;;;;;4795665;29;20051;-81
2022/01/15 05:07:46;;;;;;;15.30;8.52;;;;;;;;;;4804832;29;20407;-82
2022/01/15 05:10:31;;;;;;;13.05;8.20;;;;;;;;;;4799309;29;20051;-83
2022/01/15 05:13:21;;;;;;;15.43;9.50;;;;;;;;;;4797330;29;20488;-80
2022/01/15 05:16:07;;;;;;;14.48;8.68;;;;;;;;;;4803649;29;20043;-79
2022/01/15 05:18:52;;;;;;;12.43;7.65;;;;;;;;;;4781536;29;20055;-81
2022/01/15 05:21:38;;;;;;;15.57;9.05;;;;;;;;;;4796304;29;20059;-80
2022/01/15 05:24:26;;;;;;;17.88;10.40;;;;;;;;;;4790706;30;20396;-82
2022/01/15 05:27:12;;;;;;;42.35;23.52;;;;;;;;;;4797182;29;20059;-80
2022/01/15 05:29:57;;;;;;;29.48;16.25;;;;;;;;;;4798445;29;20484;-81
2022/01/15 05:32:43;;;;;;;22.48;12.93;;;;;;;;;;4789223;29;20051;-81
2022/01/15 05:35:28;;;;;;;30.08;14.63;;;;;;;;;;4794035;30;20055;-77
2022/01/15 05:38:14;;;;;;;28.52;14.45;;;;;;;;;;4801424;29;20055;-79
2022/01/15 05:40:59;;;;;;;22.83;12.15;;;;;;;;;;4800557;29;20059;-80
2022/01/15 05:43:45;;;;;;;34.95;16.08;;;;;;;;;;4789832;30;20495;-80
2022/01/15 05:46:33;;;;;;;31.33;15.07;;;;;;;;;;4800181;29;20055;-82
2022/01/15 05:49:18;;;;;;;33.65;15.57;;;;;;;;;;4808030;29;20046;-79
2022/01/15 05:52:04;;;;;;;60.10;21.50;;;;;;;;;;4808231;29;20055;-82
2022/01/15 05:54:49;;;;;;;34.33;16.35;;;;;;;;;;4813937;29;20051;-81
2022/01/15 05:57:34;;;;;;;34.65;15.85;;;;;;;;;;4807698;29;20047;-82
2022/01/15 06:00:19;;;;;;;46.67;18.38;;;;;;;;;;4813543;29;20051;-81
2022/01/15 06:03:05;;;;;;;32.88;17.27;;;;;;;;;;4808453;29;20055;-82
2022/01/15 06:05:50;;;;;;;27.65;15.52;;;;;;;;;;4812568;29;20407;-81
2022/01/15 06:08:35;;;;;;;29.05;15.77;;;;;;;;;;4806785;29;20146;-81
2022/01/15 06:11:23;;;;;;;23.00;12.02;;;;;;;;;;4813452;29;20059;-80
2022/01/15 06:14:09;;;;;;;19.30;12.25;;;;;;;;;;4807735;29;20043;-79
2022/01/15 06:16:54;;;;;;;28.77;13.15;;;;;;;;;;4802209;29;20412;-82
2022/01/15 06:19:39;;;;;;;26.15;14.02;;;;;;;;;;4780807;30;20040;-80
2022/01/15 06:22:25;;;;;;;28.67;13.82;;;;;;;;;;4776432;30;20060;-80
2022/01/15 06:25:11;;;;;;;36.42;17.58;;;;;;;;;;4771257;30;20052;-81
2022/01/15 06:27:56;;;;;;;45.80;17.15;;;;;;;;;;4771747;30;20052;-79
2022/01/15 06:30:42;;;;;;;60.72;28.42;;;;;;;;;;4771659;30;20416;-81
2022/01/15 06:33:27;;;;;;;42.25;22.27;;;;;;;;;;4771147;30;20388;-82
2022/01/15 06:36:13;;;;;;;42.42;24.45;;;;;;;;;;4780271;29;20055;-80
2022/01/15 06:38:59;;;;;;;48.33;24.17;;;;;;;;;;4789285;29;20047;-83
2022/01/15 06:41:44;;;;;;;40.78;22.60;;;;;;;;;;4795179;29;20051;-80
2022/01/15 06:44:30;;;;;;;35.03;17.73;;;;;;;;;;4789888;30;20480;-80
2022/01/15 06:47:15;;;;;;;27.90;16.02;;;;;;;;;;4795140;29;20047;-80
2022/01/15 06:50:04;;;;;;;31.17;17.33;;;;;;;;;;4789280;30;20055;-82
2022/01/15 06:52:50;;;;;;;29.67;15.40;;;;;;;;;;4778361;30;20055;-82
2022/01/15 06:55:36;;;;;;;34.10;17.95;;;;;;;;;;4774139;30;20044;-82
2022/01/15 06:58:22;;;;;;;24.17;12.75;;;;;;;;;;4780481;30;20056;-80
2022/01/15 07:01:09;;;;;;;25.13;13.63;;;;;;;;;;4778633;30;20052;-81
2022/01/15 07:03:54;;;;;;;36.85;19.02;;;;;;;;;;4771136;30;20056;-84
2022/01/15 07:06:39;;;;;;;32.65;17.05;;;;;;;;;;4770369;30;20052;-81
2022/01/15 07:09:24;;;;;;;58.03;30.20;;;;;;;;;;4771198;30;20055;-81
2022/01/15 07:12:10;;;;;;;48.03;26.58;;;;;;;;;;4770762;30;20048;-81
2022/01/15 07:14:56;;;;;;;54.83;28.73;;;;;;;;;;4785923;30;20047;-83
2022/01/15 07:17:45;;;;;;;53.40;28.05;;;;;;;;;;4794633;29;20056;-80
2022/01/15 07:20:31;;;;;;;49.58;25.73;;;;;;;;;;4788328;30;20465;-80
2022/01/15 07:23:16;;;;;;;61.15;31.25;;;;;;;;;;4794626;29;20051;-82
2022/01/15 07:26:02;;;;;;;53.33;29.10;;;;;;;;;;4788263;30;20051;-81
2022/01/15 07:28:47;;;;;;;52.75;28.08;;;;;;;;;;4792799;30;20051;-81
2022/01/15 07:31:33;;;;;;;54.60;27.45;;;;;;;;;;4794268;30;20412;-80
2022/01/15 07:34:20;;;;;;;64.90;29.58;;;;;;;;;;4794496;30;20059;-81
2022/01/15 07:37:05;;;;;;;86.30;40.30;;;;;;;;;;4787441;30;20403;-79
2022/01/15 07:39:51;;;;;;;85.35;34.17;;;;;;;;;;4805733;29;20407;-79
2022/01/15 07:42:38;;;;;;;56.72;28.88;;;;;;;;;;4806197;29;20059;-80
2022/01/15 07:45:22;;;;;;;60.67;26.98;;;;;;;;;;4813167;29;20059;-80
2022/01/15 07:48:07;;;;;;;68.55;26.98;;;;;;;;;;4812724;29;20054;-80
2022/01/15 07:50:53;;;;;;;57.72;22.95;;;;;;;;;;4812728;29;20062;-80
2022/01/15 07:58:50;;;;;;;72.90;31.73;;;;;;;;;;4793469;29;20047;-80
2022/01/15 08:01:54;;;;;;;46.17;20.60;;;;;;;;;;4787139;30;20051;-79
2022/01/15 08:13:49;;;;;;;26.48;11.77;;;;;;;;;;4715178;30;20045;-80
2022/01/15 08:25:36;;;;;;;68.28;29.83;;;;;;;;;;4726664;30;20061;-80
2022/01/15 08:28:23;;;;;;;70.90;34.33;;;;;;;;;;4726394;30;20052;-78
2022/01/15 08:31:13;;;;;;;69.05;33.00;;;;;;;;;;4777529;30;20408;-79
2022/01/15 08:33:59;;;;;;;82.80;33.88;;;;;;;;;;4791622;30;20455;-80
2022/01/15 08:36:44;;;;;;;53.45;24.95;;;;;;;;;;4779323;30;20044;-80
2022/01/15 08:39:30;;;;;;;135.80;52.92;;;;;;;;;;4773606;30;20412;-80
2022/01/15 08:42:16;;;;;;;85.63;37.55;;;;;;;;;;4791588;30;20047;-79
2022/01/15 08:45:05;;;;;;;49.60;23.63;;;;;;;;;;4780483;30;20052;-78
2022/01/15 08:47:50;;;;;;;87.75;39.78;;;;;;;;;;4773955;30;20048;-79
2022/01/15 08:50:36;;;;;;;76.78;35.92;;;;;;;;;;4774621;30;20052;-79
2022/01/15 08:53:22;;;;;;;51.45;29.05;;;;;;;;;;4775343;30;20056;-80
2022/01/15 08:56:08;;;;;;;39.92;20.77;;;;;;;;;;4775250;30;20051;-79
2022/01/15 08:58:53;;;;;;;37.15;21.75;;;;;;;;;;4798393;29;20055;-81
2022/01/15 09:01:38;;;;;;;41.50;24.38;;;;;;;;;;4790314;30;20047;-80
2022/01/15 09:04:25;;;;;;;42.88;24.67;;;;;;;;;;4790452;30;20043;-80
2022/01/15 09:07:13;;;;;;;45.58;26.65;;;;;;;;;;4790040;30;20059;-80
2022/01/15 09:10:00;;;;;;;48.10;28.40;;;;;;;;;;4796109;29;20523;-80
2022/01/15 09:12:45;;;;;;;52.35;26.52;;;;;;;;;;4796936;29;20081;-81
2022/01/15 09:15:32;;;;;;;48.35;28.20;;;;;;;;;;4795917;29;20051;-79
2022/01/15 09:18:18;;;;;;;52.83;28.55;;;;;;;;;;4794583;29;20055;-80
2022/01/15 09:21:12;;;;;;;53.55;29.90;;;;;;;;;;4780755;30;20415;-80
2022/01/15 09:24:03;;;;;;;53.15;29.15;;;;;;;;;;4788590;30;20059;-80
2022/01/15 09:52:07;;;;;;;38.42;21.75;;;;;;;;;;4777622;30;20052;-78
2022/01/15 09:55:17;;;;;;;31.98;17.58;;;;;;;;;;4777993;30;20047;-81
2022/01/15 09:58:45;;;;;;;40.72;22.60;;;;;;;;;;4789350;29;20059;-80
2022/01/15 10:02:03;;;;;;;82.50;40.72;;;;;;;;;;4760416;30;20056;-81
2022/01/15 10:12:49;;;;;;;37.83;20.70;;;;;;;;;;4715985;30;20079;-81
2022/01/15 10:33:35;;;;;;;50.33;23.73;;;;;;;;;;4690235;30;20049;-82
2022/01/15 10:36:29;;;;;;;44.20;24.27;;;;;;;;;;4703726;30;20052;-83
2022/01/15 10:39:20;;;;;;;55.15;27.52;;;;;;;;;;4770349;30;20052;-82
2022/01/15 10:42:19;;;;;;;30.92;17.45;;;;;;;;;;4763329;30;20047;-83
2022/01/15 10:50:03;;;;;;;30.63;18.20;;;;;;;;;;4753146;30;20460;-84
2022/01/15 10:53:55;;;;;;;31.90;15.65;;;;;;;;;;4778502;30;20051;-82
2022/01/15 11:01:30;;;;;;;32.03;16.20;;;;;;;;;;4790979;29;20408;-84
2022/01/15 11:04:58;;;;;;;45.28;21.75;;;;;;;;;;4787645;30;20043;-84
2022/01/15 11:07:46;;;;;;;67.20;29.30;;;;;;;;;;4775039;30;20428;-82
2022/01/15 11:14:55;;;;;;;23.05;12.32;;;;;;;;;;4789146;29;20055;-83
2022/01/15 11:17:41;;;;;;;35.30;17.05;;;;;;;;;;4786264;30;20043;-83
2022/01/15 11:20:31;;;;;;;45.17;24.85;;;;;;;;;;4787528;30;20039;-84
2022/01/15 11:23:19;;;;;;;53.50;22.92;;;;;;;;;;4793539;29;20043;-85
2022/01/15 11:26:12;;;;;;;38.55;19.33;;;;;;;;;;4793852;30;20050;-84
2022/01/15 11:28:58;;;;;;;53.35;25.67;;;;;;;;;;4803946;30;20043;-80
2022/01/15 11:31:43;;;;;;;52.08;25.05;;;;;;;;;;4798281;30;20047;-80
2022/01/15 11:34:29;;;;;;;47.00;20.60;;;;;;;;;;4792321;30;20066;-82
2022/01/15 11:37:16;;;;;;;59.88;29.00;;;;;;;;;;4794453;30;20408;-83
2022/01/15 11:40:34;;;;;;;60.83;30.10;;;;;;;;;;4785749;29;20461;-82
2022/01/15 11:43:25;;;;;;;56.17;28.73;;;;;;;;;;4794896;30;20047;-83
2022/01/15 11:46:51;;;;;;;58.90;31.38;;;;;;;;;;4788652;30;20055;-83
2022/01/15 11:49:41;;;;;;;57.83;31.45;;;;;;;;;;4749863;30;20060;-84
2022/01/15 11:52:27;;;;;;;63.25;33.92;;;;;;;;;;4734538;30;20521;-87
2022/01/15 11:55:14;;;;;;;60.75;30.48;;;;;;;;;;4787380;30;20059;-86
2022/01/15 11:58:00;;;;;;;44.15;24.10;;;;;;;;;;4783268;29;20500;-86
2022/01/15 12:00:47;;;;;;;39.40;22.50;;;;;;;;;;4791932;30;20043;-83
2022/01/15 12:03:45;;;;;;;43.08;24.08;;;;;;;;;;4781193;30;20056;-84
2022/01/15 12:06:30;;;;;;;48.78;26.02;;;;;;;;;;4776981;30;20039;-85
2022/01/15 12:09:38;;;;;;;46.40;25.17;;;;;;;;;;4792862;30;20051;-82
2022/01/15 12:12:32;;;;;;;39.80;21.02;;;;;;;;;;4791247;30;20043;-83
2022/01/15 12:15:26;;;;;;;44.15;22.42;;;;;;;;;;4791201;30;20400;-83
2022/01/15 12:18:17;;;;;;;66.53;29.13;;;;;;;;;;4769330;29;20051;-82
2022/01/15 12:21:26;;;;;;;50.10;22.92;;;;;;;;;;4795360;29;20043;-82
2022/01/15 12:41:37;;;;;;;51.70;23.13;;;;;;;;;;4796676;29;20043;-83
2022/01/15 12:57:54;;;;;;;38.45;18.70;;;;;;;;;;4796908;29;20043;-83
2022/01/15 13:05:32;;;;;;;37.20;17.65;;;;;;;;;;4753005;30;20052;-82
2022/01/15 13:09:23;;;;;;;56.55;28.30;;;;;;;;;;4752743;30;20052;-83
2022/01/15 13:13:23;;;;;;;53.55;28.95;;;;;;;;;;4731344;30;20064;-80
2022/01/15 13:16:53;;;;;;;49.60;23.10;;;;;;;;;;4759611;30;20493;-83
2022/01/15 13:20:37;;;;;;;47.00;23.33;;;;;;;;;;4760564;30;20040;-82
2022/01/15 13:27:49;;;;;;;65.05;33.72;;;;;;;;;;4756172;30;20052;-84
2022/01/15 13:31:03;;;;;;;45.85;22.05;;;;;;;;;;4782344;29;20051;-84
2022/01/15 13:38:31;;;;;;;;;;;;;;;;;;4805623;24;20063;-80
2022/01/15 13:41:21;;;;;;;52.50;28.15;;;;;;;;;;4794486;29;19921;-80
2022/01/15 13:44:14;;;;;;;57.20;31.60;;;;;;;;;;4808040;29;20054;-79
2022/01/15 13:47:07;;;;;;;60.25;30.48;;;;;;;;;;4807856;29;20055;-80
2022/01/15 13:53:06;;;;;;;89.90;42.00;;;;;;;;;;4808117;29;20046;-77
2022/01/15 13:55:51;;;;;;;120.93;57.85;;;;;;;;;;4813591;29;20063;-80
2022/01/15 13:58:36;;;;;;;129.18;62.03;;;;;;;;;;4794908;29;20051;-79
2022/01/15 14:01:25;;;;;;;123.53;62.17;;;;;;;;;;4808107;29;20051;-79
2022/01/15 14:04:39;;;;;;;103.88;53.45;;;;;;;;;;4807822;29;20047;-81
2022/01/15 14:07:28;;;;;;;86.80;46.50;;;;;;;;;;4807778;29;20047;-79
2022/01/15 14:10:18;;;;;;;105.43;52.10;;;;;;;;;;4807347;29;20442;-79
2022/01/15 14:13:10;;;;;;;106.18;52.53;;;;;;;;;;4807503;29;20051;-79
2022/01/15 14:15:55;;;;;;;173.63;83.93;;;;;;;;;;4807416;29;20051;-79
2022/01/15 14:18:43;;;;;;;173.57;86.63;;;;;;;;;;4806688;29;20406;-79
2022/01/15 14:24:26;;;;;;;212.23;104.82;;;;;;;;;;4807057;29;20051;-83
2022/01/15 14:27:26;;;;;;;219.60;118.82;;;;;;;;;;4812878;24;20055;-77
2022/01/15 14:30:12;;;;;;;201.48;108.90;;;;;;;;;;4806947;29;20059;-76
2022/01/15 14:32:58;;;;;;;228.75;117.13;;;;;;;;;;4807071;29;20051;-77
2022/01/15 14:35:45;;;;;;;236.90;119.28;;;;;;;;;;4807310;29;20042;-75
2022/01/15 14:38:30;;;;;;;295.48;140.95;;;;;;;;;;4793881;29;20051;-78
2022/01/15 14:41:16;;;;;;;325.08;159.00;;;;;;;;;;4806766;29;20486;-76
2022/01/15 14:44:01;;;;;;;309.50;156.02;;;;;;;;;;4812931;29;20387;-75
2022/01/15 14:46:46;;;;;;;351.60;175.77;;;;;;;;;;4806113;29;20054;-77
2022/01/15 14:49:32;;;;;;;239.07;121.40;;;;;;;;;;4807358;29;20438;-77
2022/01/15 14:52:17;;;;;;;207.95;106.55;;;;;;;;;;4813020;29;20050;-77
2022/01/15 14:55:03;;;;;;;182.13;90.85;;;;;;;;;;4812931;29;20047;-76
2022/01/15 14:57:49;;;;;;;164.90;80.80;;;;;;;;;;4807262;29;20047;-77
2022/01/15 15:00:34;;;;;;;148.95;73.53;;;;;;;;;;4806567;29;20051;-78
2022/01/15 15:03:20;;;;;;;156.90;77.95;;;;;;;;;;4806711;29;20051;-76
2022/01/15 15:06:06;;;;;;;154.45;81.00;;;;;;;;;;4806925;29;20047;-78
2022/01/15 15:08:51;;;;;;;156.98;81.93;;;;;;;;;;4806920;29;20055;-77
2022/01/15 15:11:37;;;;;;;144.07;74.10;;;;;;;;;;4806985;29;20054;-77
2022/01/15 15:14:22;;;;;;;151.77;71.15;;;;;;;;;;4806490;29;20050;-78
2022/01/15 15:17:07;;;;;;;125.47;62.88;;;;;;;;;;4790948;29;20414;-77
2022/01/15 15:19:57;;;;;;;135.70;65.85;;;;;;;;;;4805136;29;20051;-77
2022/01/15 15:22:43;;;;;;;149.10;81.25;;;;;;;;;;4812889;29;20050;-77
2022/01/15 15:25:29;;;;;;;230.05;117.10;;;;;;;;;;4806361;29;20401;-77
2022/01/15 15:28:15;;;;;;;190.90;97.50;;;;;;;;;;4806042;29;20059;-78
2022/01/15 15:31:01;;;;;;;191.32;95.50;;;;;;;;;;4806725;29;20505;-78
2022/01/15 15:33:48;;;;;;;189.60;96.75;;;;;;;;;;4807234;29;20050;-77
2022/01/15 15:36:33;;;;;;;189.95;97.57;;;;;;;;;;4816372;29;20047;-77
2022/01/15 15:39:19;;;;;;;199.52;94.38;;;;;;;;;;4813456;29;20051;-77
2022/01/15 15:42:06;;;;;;;176.45;90.32;;;;;;;;;;4806237;29;20055;-77
2022/01/15 15:44:52;;;;;;;174.75;87.70;;;;;;;;;;4812841;29;20051;-77
2022/01/15 15:47:36;;;;;;;180.25;90.00;;;;;;;;;;4823072;24;20062;-80
2022/01/15 15:50:21;;;;;;;204.40;101.95;;;;;;;;;;4810094;29;20046;-81
2022/01/15 15:53:08;;;;;;;205.68;102.93;;;;;;;;;;4805651;29;20035;-80
2022/01/15 15:55:53;;;;;;;305.90;142.60;;;;;;;;;;4803853;29;20486;-82
2022/01/15 15:58:39;;;;;;;235.18;118.50;;;;;;;;;;4804823;29;20039;-78
2022/01/15 16:01:26;;;;;;;216.85;106.82;;;;;;;;;;4805504;29;20051;-78
2022/01/15 16:04:11;;;;;;;215.60;105.68;;;;;;;;;;4799633;29;20055;-82
2022/01/15 16:06:56;;;;;;;204.57;101.68;;;;;;;;;;4792119;29;20043;-81
2022/01/15 16:09:42;;;;;;;224.60;108.70;;;;;;;;;;4795758;29;20042;-82
2022/01/15 16:12:28;;;;;;;286.60;134.85;;;;;;;;;;4789366;29;20051;-81
2022/01/15 16:15:13;;;;;;;258.95;119.90;;;;;;;;;;4811259;29;20042;-82
2022/01/15 16:17:59;;;;;;;200.98;92.97;;;;;;;;;;4809219;29;20042;-80
2022/01/15 16:20:44;;;;;;;143.43;65.30;;;;;;;;;;4810260;29;20050;-81
2022/01/15 16:23:30;;;;;;;145.73;68.72;;;;;;;;;;4812039;29;20043;-79
2022/01/15 16:26:16;;;;;;;145.60;66.40;;;;;;;;;;4811923;29;20054;-82
2022/01/15 16:29:02;;;;;;;137.35;68.00;;;;;;;;;;4806122;29;20042;-82
2022/01/15 16:31:48;;;;;;;362.38;148.23;;;;;;;;;;4810269;29;20063;-81
2022/01/15 16:34:34;;;;;;;222.38;107.47;;;;;;;;;;4799367;29;20369;-81
2022/01/15 16:37:20;;;;;;;313.88;156.07;;;;;;;;;;4804990;29;20369;-81
2022/01/15 16:40:10;;;;;;;238.00;109.40;;;;;;;;;;4807884;29;20046;-82
2022/01/15 16:42:55;;;;;;;317.95;169.93;;;;;;;;;;4802652;29;20047;-82
2022/01/15 16:45:40;;;;;;;239.05;114.00;;;;;;;;;;4807817;29;20483;-81
2022/01/15 16:48:26;;;;;;;211.52;107.93;;;;;;;;;;4809690;29;20050;-84
2022/01/15 16:51:11;;;;;;;252.55;118.07;;;;;;;;;;4808906;29;20043;-81
2022/01/15 16:53:57;;;;;;;240.73;117.50;;;;;;;;;;4808209;29;20050;-80
2022/01/15 16:56:43;;;;;;;228.23;114.90;;;;;;;;;;4792571;29;20353;-81
2022/01/15 16:59:29;;;;;;;203.73;103.97;;;;;;;;;;4792127;29;20059;-82
2022/01/15 17:02:15;;;;;;;243.63;122.32;;;;;;;;;;4802814;29;20047;-80
2022/01/15 17:05:01;;;;;;;231.80;121.38;;;;;;;;;;4808088;29;20047;-81
2022/01/15 17:07:47;;;;;;;190.30;91.80;;;;;;;;;;4809315;29;20361;-81
2022/01/15 17:10:32;;;;;;;178.43;90.00;;;;;;;;;;4802598;29;20059;-81
2022/01/15 17:13:17;;;;;;;195.57;93.93;;;;;;;;;;4794981;29;20051;-82
2022/01/15 17:16:03;;;;;;;234.05;112.72;;;;;;;;;;4797413;29;20047;-79
2022/01/15 17:18:51;;;;;;;241.68;123.10;;;;;;;;;;4801654;29;20043;-81
2022/01/15 17:21:39;;;;;;;245.57;110.28;;;;;;;;;;4792859;30;20043;-80
2022/01/15 17:24:25;;;;;;;264.60;123.88;;;;;;;;;;4794167;30;20043;-78
2022/01/15 17:27:10;;;;;;;252.80;118.05;;;;;;;;;;4796546;30;20047;-79
2022/01/15 17:29:56;;;;;;;192.70;94.00;;;;;;;;;;4807204;29;20047;-79
2022/01/15 17:32:42;;;;;;;191.63;90.65;;;;;;;;;;4809024;29;20050;-79
2022/01/15 17:35:28;;;;;;;234.60;118.15;;;;;;;;;;4808242;29;20038;-79
2022/01/15 17:38:14;;;;;;;396.92;195.77;;;;;;;;;;4808553;29;20038;-80
2022/01/15 17:41:00;;;;;;;236.98;114.63;;;;;;;;;;4800217;29;20050;-78
2022/01/15 17:43:46;;;;;;;204.30;100.75;;;;;;;;;;4805425;29;20046;-81
2022/01/15 17:46:30;;;;;;;229.55;109.47;;;;;;;;;;4799850;29;20047;-77
2022/01/15 17:49:17;;;;;;;182.27;87.95;;;;;;;;;;4790139;29;20051;-81
2022/01/15 17:52:03;;;;;;;186.13;90.40;;;;;;;;;;4800012;29;20372;-80
2022/01/15 17:54:49;;;;;;;234.85;114.45;;;;;;;;;;4808063;29;20047;-80
2022/01/15 17:57:35;;;;;;;282.75;139.15;;;;;;;;;;4805651;29;20043;-79
2022/01/15 18:00:20;;;;;;;435.33;242.18;;;;;;;;;;4807482;29;20055;-81
2022/01/15 18:03:06;;;;;;;486.15;284.92;;;;;;;;;;4813522;29;20055;-78
2022/01/15 18:05:52;;;;;;;449.00;248.05;;;;;;;;;;4810563;29;20360;-83
2022/01/15 18:08:37;;;;;;;463.00;266.70;;;;;;;;;;4810811;29;20050;-81
2022/01/15 18:11:23;;;;;;;494.55;254.95;;;;;;;;;;4816808;29;20471;-82
2022/01/15 18:14:10;;;;;;;463.45;256.38;;;;;;;;;;4816440;29;20360;-80
2022/01/15 18:16:56;;;;;;;441.20;232.40;;;;;;;;;;4801263;29;20043;-83
2022/01/15 18:19:42;;;;;;;461.80;257.88;;;;;;;;;;4803954;29;20050;-79
2022/01/15 18:22:27;;;;;;;444.70;244.73;;;;;;;;;;4795046;29;20369;-81
2022/01/15 18:25:12;;;;;;;559.15;323.17;;;;;;;;;;4799902;29;20050;-79
2022/01/15 18:27:58;;;;;;;544.92;313.75;;;;;;;;;;4807294;29;20046;-79
2022/01/15 18:30:46;;;;;;;445.25;249.40;;;;;;;;;;4800208;29;20055;-79
2022/01/15 18:33:33;;;;;;;353.98;179.82;;;;;;;;;;4813450;29;20376;-80
2022/01/15 18:36:20;;;;;;;262.25;130.27;;;;;;;;;;4796306;29;20042;-80
2022/01/15 18:39:06;;;;;;;226.40;116.97;;;;;;;;;;4807040;29;20047;-80
2022/01/15 18:41:51;;;;;;;332.95;159.80;;;;;;;;;;4812358;29;20038;-82
2022/01/15 18:44:37;;;;;;;337.77;168.50;;;;;;;;;;4804294;29;20042;-80
2022/01/15 18:47:22;;;;;;;248.20;123.43;;;;;;;;;;4785196;29;20047;-80
2022/01/15 18:50:13;;;;;;;202.50;102.32;;;;;;;;;;4792161;29;20047;-81
2022/01/15 18:52:58;;;;;;;172.55;90.50;;;;;;;;;;4788852;30;20047;-77